Архив погоды в Ковде

Метеограмма Ковда
Вторник, 14 Августа
Время местн. Темп Ветер Видим Явления Облачность нижн/средн/верх Атм. давл. Влжн Точка росы ВНГО R Сост. почвы Tg s
Напр Скр Прв ур.ст ур.м изм
15:00 +13° С 4 6 50 км - облачно 755 756 +1.2 71% +7.9° 1 км - - - -
12:00 +14.4° С 3 5 50 км - преимущественно облачно 754 755 +0.9 62% +7.3° 1 км - - - -
09:00 +10.8° С 3 6 50 км - облачно 753 754 +1.1 75% +6.5° 1 км 0 Влажная (без луж) - -
06:00 - +10.4° С-З 2 4 - - - 752 753 +1 76% +6.4° - - - - -
03:00 - +10.7° В 2 4 - - - 751 752 +1 74% +6.3° - - - - -
00:00 - +11.8° В,С-В 4 7 - - - 750 751 +1.3 71% +6.8° - - - - -
Понедельник, 13 Августа
Время местн. Темп Ветер Видим Явления Облачность нижн/средн/верх Атм. давл. Влжн Точка росы ВНГО R Сост. почвы Tg s
Напр Скр Прв ур.ст ур.м изм
21:00 +12.3° В 3 6 20 км - облачно 748 750 +1.2 71% +7.1° 1 км 0.7 - - -
18:00 +14° В,С-В 4 7 20 км - преимущественно облачно 747 749 +1.5 69% +8.5° 1 км - - - -
15:00 - +16.1° С-В 3 6 - - - 746 747 +1.5 75% +11.7° - - - - -
12:00 +18.6° С-В 3 5 20 км осадки вдали станции облачно с прояснениями 744 746 +0.8 61% +10.9° 600 м - - - -
09:00 +17.2° С,С-В 2 3 50 км - облачно с прояснениями 743 745 +0.2 66% +10.8° 1 км 0 Влажная (без луж) - -
06:00 - +11.1° З,С-З 2 3 - - - 744 745 -1 92% +9.8° - - - - -
03:00 - +11° С-З 2 3 - - - 745 746 -1 92% +9.7° - - - - -
00:00 - +12.3° З 1 2 - - - 746 747 -1.1 88% +10.3° - - - - -
Воскресенье, 12 Августа
Время местн. Темп Ветер Видим Явления Облачность нижн/средн/верх Атм. давл. Влжн Точка росы ВНГО R Сост. почвы Tg s
Напр Скр Прв ур.ст ур.м изм
21:00 +16.2° Ю-В 1 2 50 км - переменная облачность 747 748 -0.9 62% +9° 1 км 0 - - -
18:00 +18.7° В 2 3 50 км - преимущественно облачно 748 749 -0.7 58% +10.2° 1 км - - - -
15:00 - +19.6° З 1 4 - - - 748 750 -0.7 47% +8° - - - - -
12:00 +19.4° Ю-З 1 4 50 км - переменная облачность 749 751 -0.3 52% +9.2° 1 км - - - -
09:00 +16.3° Ю-З 2 5 50 км - незначительная облачность 749 751 -0.9 62% +8.9° 1 км 0 Влажная (без луж) - -
06:00 - +13° Ю,Ю-З 1 2 - - - 750 752 -0.7 80% +9.6° - - - - -
03:00 - +12.8° Ю,Ю-З 1 3 - - - 751 753 -0.7 79% +9.2° - - - - -
00:00 - +15.9° Ю-З 2 6 - - - 752 753 -0.3 65% +9.4° - - - - -
Суббота, 11 Августа
Время местн. Темп Ветер Видим Явления Облачность нижн/средн/верх Атм. давл. Влжн Точка росы ВНГО R Сост. почвы Tg s
Напр Скр Прв ур.ст ур.м изм
21:00 +18° Ю,Ю-З 1 3 50 км - переменная облачность 752 753 +0.9 60% +10.1° 1 км 0 - - -
18:00 +23.3° З 2 6 50 км - переменная облачность 751 752 -0.7 44% +10.5° 1 км - - - -
15:00 - +19.3° Ю-В 1 3 - - - 752 753 -0.9 96% +18.7° - - - - -
12:00 +17.5° Ю,Ю-В 1 2 10 км - облачно 753 754 -1.1 96% +16.8° 600 м - - - -